Aeroporto :
LOGIN :

Iscrizione | Disclaimer

   EN    FR    IT 

 










Sommario :    VFR   VFR Marginale   IFR   IFR Intensivo   IFR Molto Intensivo
Visibilità : 
Base nubi : 
>= 8 km
>= 3000ft
5 / 8 km
1000 / 3000 ft
1500m / 5 km
500 / 1000 ft
800 / 1500m
200 / 500 ft
< 800m
< 200 ft
Simboli :   Temporali  Nebbia  Neve Forte  Precipitazioni Forti  Vento > 20 kt
SIGMETs :   Varie  Temporali  Ghiacco  Turbolenza  Onda orograficha  Ceneri Vulcaniche






- Altitudine del aeroporto : 659 ft
- Codice IATA : LGG


EBLG - Liège

ULTIMO METAR :
  • 231420Z VRB02KT 9999 BKN020 05/01 Q1035 NOSIG

METARs OBSOLETI :
  • 231350Z VRB02KT 9999 BKN020 05/01 Q1035 NOSIG
  • 231320Z 18003KT 9999 BKN022 05/01 Q1035 NOSIG
  • 231250Z 18003KT 120V230 9999 BKN022 05/01 Q1035 NOSIG
  • 231220Z 15004KT 100V180 9999 BKN021 04/01 Q1035 NOSIG
  • 231150Z 15003KT 100V180 9999 BKN021 04/01 Q1036 NOSIG
  • 231120Z 15002KT 9000 BKN021 05/02 Q1036 NOSIG

TAF TAF EBLG
Valido dal 23 a 12 ore il 24 a 18 ore UTC


231107Z 2312/2418 VRB03KT 7000 SCT010 BKN018
PROB30
TEMPO 2402/2409 3000 MIFG BR



MetMap, La meteo Aeronautica in un colpo d'occhio ! - Copyright ORBIFLY Dicembre 2007 - Disclaimer

ORBIFLY MET'MAP TEAM :

Programmazione e sviluppo : Alexandra Zaïnal
Concezione : Baudouin d'Aumeries
Aiuto per la programmazione : Marc-Olivier Méhu
Supporto tecnico e logistico : Manuel Goepfert
Aiuto per la traduzione : Arnaldo La Scala

Contatto : metmap@orbifly.com




FONTI E CREDITI :

   NOAA